createdAt,value
2023-04-26T00:00:19.216Z,15.73
2023-04-26T00:03:21.063Z,10.60
2023-04-26T00:06:22.860Z,14.88
2023-04-26T00:09:24.676Z,13.77
2023-04-26T00:12:26.358Z,12.90
2023-04-26T00:15:27.909Z,15.82
2023-04-26T00:18:29.564Z,11.30
2023-04-26T00:21:31.751Z,17.02
2023-04-26T00:24:33.392Z,16.88
2023-04-26T00:27:35.136Z,19.48
2023-04-26T00:30:41.142Z,17.08
2023-04-26T00:33:43.468Z,21.35
2023-04-26T00:36:45.953Z,20.48
2023-04-26T00:39:47.637Z,14.75
2023-04-26T00:42:49.220Z,20.17
2023-04-26T00:45:51.973Z,16.40
2023-04-26T00:48:53.722Z,19.58
2023-04-26T00:51:55.724Z,15.57
2023-04-26T00:55:00.441Z,16.13
2023-04-26T00:58:02.430Z,14.40
2023-04-26T01:01:04.160Z,13.70
2023-04-26T01:04:06.123Z,14.80
2023-04-26T01:07:08.262Z,18.45
2023-04-26T01:10:10.418Z,16.80
2023-04-26T01:13:12.801Z,17.17
2023-04-26T01:16:15.878Z,16.25
2023-04-26T01:19:18.152Z,19.00
2023-04-26T01:22:19.703Z,17.80
2023-04-26T01:25:21.433Z,16.75
2023-04-26T01:28:23.202Z,17.88
2023-04-26T01:31:24.903Z,15.57
2023-04-26T01:34:26.588Z,14.15
2023-04-26T01:37:28.244Z,18.73
2023-04-26T01:40:29.792Z,18.58
2023-04-26T01:43:31.523Z,18.20
2023-04-26T01:46:33.345Z,16.35
2023-04-26T01:49:35.159Z,19.77
2023-04-26T01:52:36.781Z,16.60
2023-04-26T01:55:38.612Z,20.90
2023-04-26T01:58:40.258Z,16.33
2023-04-26T02:01:43.277Z,20.17
2023-04-26T02:04:44.865Z,18.30
2023-04-26T02:07:46.472Z,26.90
2023-04-26T02:10:48.036Z,26.77
2023-04-26T02:13:49.626Z,19.45
2023-04-26T02:16:51.850Z,33.95
2023-04-26T02:19:53.857Z,17.90
2023-04-26T02:22:55.496Z,23.40
2023-04-26T02:25:57.126Z,24.27
2023-04-26T02:28:58.763Z,21.10
2023-04-26T02:32:00.439Z,20.73
2023-04-26T02:35:02.447Z,25.40
2023-04-26T02:38:04.708Z,30.10
2023-04-26T02:41:06.405Z,22.13
2023-04-26T02:44:08.309Z,26.98
2023-04-26T02:47:10.801Z,25.13
2023-04-26T02:50:12.482Z,26.30
2023-04-26T02:53:14.070Z,23.20
2023-04-26T02:56:16.259Z,27.45
2023-04-26T02:59:17.880Z,22.45
2023-04-26T03:02:19.563Z,26.08
2023-04-26T03:05:21.459Z,23.77
2023-04-26T03:08:23.174Z,28.00
2023-04-26T03:11:24.866Z,23.02
2023-04-26T03:14:29.434Z,26.52
2023-04-26T03:17:36.812Z,22.48
2023-04-26T03:21:10.771Z,23.58
2023-04-26T03:25:04.872Z,24.67
2023-04-26T03:28:44.714Z,37.25
2023-04-26T03:35:02.603Z,32.03
2023-04-26T03:38:10.052Z,22.83
2023-04-26T03:41:11.930Z,30.02
2023-04-26T03:44:31.294Z,29.40
2023-04-26T03:47:33.058Z,26.30
2023-04-26T03:50:34.678Z,24.50
2023-04-26T03:53:36.335Z,38.75
2023-04-26T03:56:38.751Z,27.45
2023-04-26T03:59:40.357Z,30.02
2023-04-26T04:02:42.864Z,29.67
2023-04-26T04:05:44.868Z,27.67
2023-04-26T04:08:46.482Z,24.05
2023-04-26T04:11:48.122Z,31.17
2023-04-26T04:14:49.703Z,34.50
2023-04-26T04:17:51.372Z,34.45
2023-04-26T04:20:52.995Z,31.17
2023-04-26T04:23:54.901Z,35.17
2023-04-26T04:26:56.520Z,42.13
2023-04-26T04:29:58.082Z,47.30
2023-04-26T04:33:00.206Z,35.47
2023-04-26T04:36:01.845Z,33.67
2023-04-26T04:39:04.133Z,33.95
2023-04-26T04:42:06.100Z,34.47
2023-04-26T04:45:08.210Z,33.83
2023-04-26T04:48:11.355Z,38.05
2023-04-26T04:51:13.081Z,36.05
2023-04-26T04:54:16.630Z,37.13
2023-04-26T04:57:18.791Z,40.90
2023-04-26T05:00:21.090Z,45.95
2023-04-26T05:03:22.881Z,28.33
2023-04-26T05:06:25.251Z,37.47
2023-04-26T05:09:27.280Z,39.10
2023-04-26T05:12:28.871Z,44.45
2023-04-26T05:15:30.576Z,43.78
2023-04-26T05:18:32.145Z,41.58
2023-04-26T05:21:33.691Z,46.25
2023-04-26T05:24:35.411Z,44.25
2023-04-26T05:27:40.042Z,31.27
2023-04-26T05:30:41.731Z,33.35
2023-04-26T05:33:43.271Z,42.22
2023-04-26T05:36:44.827Z,40.42
2023-04-26T05:39:46.376Z,40.78
2023-04-26T05:42:48.003Z,40.50
2023-04-26T05:45:53.757Z,33.63
2023-04-26T05:48:55.361Z,36.22
2023-04-26T05:52:00.241Z,37.13
2023-04-26T05:55:04.107Z,39.17
2023-04-26T05:58:06.363Z,31.60
2023-04-26T06:01:08.736Z,33.40
2023-04-26T06:04:11.046Z,44.03
2023-04-26T06:07:13.125Z,29.55
2023-04-26T06:10:14.653Z,41.33
2023-04-26T06:13:16.504Z,50.65
2023-04-26T06:16:18.094Z,40.90
2023-04-26T06:19:19.775Z,48.13
2023-04-26T06:22:21.401Z,41.67
2023-04-26T06:25:23.102Z,39.83
2023-04-26T06:28:24.691Z,42.05
2023-04-26T06:31:26.290Z,36.50
2023-04-26T06:34:27.989Z,36.80
2023-04-26T06:37:29.560Z,38.78
2023-04-26T06:40:31.288Z,57.65
2023-04-26T06:43:32.817Z,53.03
2023-04-26T06:46:34.573Z,50.13
2023-04-26T06:49:36.556Z,44.97
2023-04-26T06:52:38.768Z,34.75
2023-04-26T06:55:40.326Z,36.80
2023-04-26T06:59:02.581Z,35.05
2023-04-26T07:02:04.227Z,34.28
2023-04-26T07:05:06.432Z,30.63
2023-04-26T07:08:08.166Z,34.80
2023-04-26T07:11:11.028Z,31.77
2023-04-26T07:14:12.666Z,27.80
2023-04-26T07:17:14.221Z,28.55
2023-04-26T07:20:19.699Z,42.22
2023-04-26T07:23:21.320Z,36.10
2023-04-26T07:26:23.746Z,37.58
2023-04-26T07:29:25.442Z,37.97
2023-04-26T07:32:27.065Z,26.15
2023-04-26T07:35:28.800Z,25.98
2023-04-26T07:38:30.459Z,20.88
2023-04-26T07:41:32.181Z,23.33
2023-04-26T07:44:34.162Z,20.75
2023-04-26T07:47:36.259Z,17.45
2023-04-26T07:50:37.818Z,17.73
2023-04-26T07:53:41.089Z,20.75
2023-04-26T07:56:42.708Z,14.00
2023-04-26T07:59:44.261Z,12.35
2023-04-26T08:02:49.326Z,14.77
2023-04-26T08:05:51.293Z,15.07
2023-04-26T08:08:53.837Z,19.08
2023-04-26T08:11:55.566Z,18.15
2023-04-26T08:14:57.094Z,20.08
2023-04-26T08:17:58.652Z,16.08
2023-04-26T08:21:00.492Z,26.55
2023-04-26T08:24:02.056Z,25.25
2023-04-26T08:27:03.739Z,20.80
2023-04-26T08:30:06.055Z,26.75
2023-04-26T08:33:08.853Z,23.63
2023-04-26T08:36:10.468Z,23.95
2023-04-26T08:39:12.302Z,19.95
2023-04-26T08:42:16.118Z,20.33
2023-04-26T08:45:17.943Z,26.13
2023-04-26T08:48:19.803Z,19.67
2023-04-26T08:51:21.963Z,19.85
2023-04-26T08:54:25.144Z,21.92
2023-04-26T08:57:27.459Z,23.50
2023-04-26T09:00:30.345Z,19.80
2023-04-26T09:03:33.713Z,17.33
2023-04-26T09:06:37.035Z,17.23
2023-04-26T09:09:42.317Z,15.68
2023-04-26T09:12:44.155Z,19.80
2023-04-26T09:15:48.529Z,14.68
2023-04-26T09:18:57.273Z,16.35
2023-04-26T09:21:58.890Z,15.73
2023-04-26T09:25:01.529Z,19.08
2023-04-26T09:28:19.522Z,17.08
2023-04-26T09:31:39.344Z,17.15
2023-04-26T09:34:46.761Z,16.20
2023-04-26T09:38:13.861Z,13.77
2023-04-26T09:41:16.046Z,14.10
2023-04-26T09:44:24.900Z,15.32
2023-04-26T09:47:26.640Z,18.40
2023-04-26T09:50:32.023Z,20.17
2023-04-26T09:53:41.585Z,16.83
2023-04-26T09:56:58.743Z,13.55
2023-04-26T10:00:08.330Z,10.10
2023-04-26T10:03:10.220Z,9.32
2023-04-26T10:06:15.915Z,11.95
2023-04-26T10:09:18.291Z,9.50
2023-04-26T10:12:20.737Z,16.88
2023-04-26T10:15:22.589Z,11.73
2023-04-26T10:18:24.246Z,13.48
2023-04-26T10:21:35.073Z,10.38
2023-04-26T10:27:44.459Z,12.48
2023-04-26T10:30:59.360Z,14.48
2023-04-26T10:34:21.030Z,16.17
2023-04-26T10:37:22.576Z,7.80
2023-04-26T10:40:26.357Z,10.05
2023-04-26T10:43:28.590Z,9.63
2023-04-26T10:46:40.846Z,12.32
2023-04-26T10:49:46.593Z,13.07
2023-04-26T10:53:05.746Z,9.18
2023-04-26T10:56:08.184Z,11.43
2023-04-26T11:02:16.566Z,9.93
2023-04-26T11:05:47.609Z,11.18
2023-04-26T11:08:49.188Z,7.85
2023-04-26T11:11:53.784Z,13.55
2023-04-26T11:14:56.296Z,7.47
2023-04-26T11:17:58.026Z,13.30
2023-04-26T11:21:00.178Z,9.00
2023-04-26T11:24:01.891Z,16.20
2023-04-26T11:27:09.663Z,16.35
2023-04-26T11:30:12.331Z,12.38
2023-04-26T11:33:24.669Z,14.60
2023-04-26T11:36:27.049Z,8.90
2023-04-26T11:39:29.156Z,13.85
2023-04-26T11:42:31.021Z,14.50
2023-04-26T11:45:34.915Z,15.00
2023-04-26T11:48:38.324Z,17.80
2023-04-26T11:51:40.308Z,9.68
2023-04-26T11:54:44.073Z,15.23
2023-04-26T11:57:45.950Z,14.25
2023-04-26T12:01:04.726Z,12.23
2023-04-26T12:04:10.497Z,11.40
2023-04-26T12:07:12.360Z,17.50
2023-04-26T12:10:18.909Z,15.35
2023-04-26T12:13:21.245Z,12.88
2023-04-26T12:16:26.848Z,14.02
2023-04-26T12:19:32.823Z,10.85
2023-04-26T12:22:34.373Z,15.20
2023-04-26T12:25:41.266Z,10.20
2023-04-26T12:28:43.118Z,10.20
2023-04-26T12:31:44.705Z,11.35
2023-04-26T12:34:46.487Z,8.38
2023-04-26T12:37:49.471Z,11.55
2023-04-26T12:40:51.408Z,14.18
2023-04-26T12:43:52.981Z,15.38
2023-04-26T12:46:54.950Z,10.70
2023-04-26T12:49:56.702Z,15.25
2023-04-26T12:52:58.282Z,12.52
2023-04-26T12:55:59.946Z,11.25
2023-04-26T12:59:01.654Z,15.90
2023-04-26T13:02:03.718Z,13.93
2023-04-26T13:05:06.637Z,11.48
2023-04-26T13:08:08.257Z,9.07
2023-04-26T13:11:09.826Z,10.75
2023-04-26T13:14:11.782Z,12.10
2023-04-26T13:17:13.310Z,12.77
2023-04-26T13:20:14.924Z,11.77
2023-04-26T13:23:16.510Z,9.98
2023-04-26T13:26:18.283Z,18.40
2023-04-26T13:29:19.889Z,13.55
2023-04-26T13:32:22.179Z,10.50
2023-04-26T13:35:23.835Z,12.30
2023-04-26T13:38:26.807Z,12.48
2023-04-26T13:41:33.237Z,14.35
2023-04-26T13:44:35.112Z,14.93
2023-04-26T13:47:36.958Z,10.98
2023-04-26T13:50:38.551Z,12.23
2023-04-26T13:53:40.591Z,13.82
2023-04-26T13:56:42.188Z,9.05
2023-04-26T13:59:43.784Z,20.25
2023-04-26T14:02:45.555Z,13.30
2023-04-26T14:05:47.211Z,12.13
2023-04-26T14:08:48.792Z,12.23
2023-04-26T14:12:00.872Z,9.40
2023-04-26T14:15:09.913Z,11.95
2023-04-26T14:18:11.518Z,13.50
2023-04-26T14:21:13.180Z,14.18
2023-04-26T14:24:14.805Z,13.65
2023-04-26T14:27:16.486Z,12.60
2023-04-26T14:30:18.142Z,13.25
2023-04-26T14:33:19.776Z,9.88
2023-04-26T14:36:21.620Z,13.15
2023-04-26T14:39:24.693Z,15.55
2023-04-26T14:42:26.713Z,18.90
2023-04-26T14:45:40.914Z,10.40
2023-04-26T14:48:45.516Z,13.40
2023-04-26T14:51:47.228Z,13.23
2023-04-26T14:54:48.958Z,17.60
2023-04-26T14:57:50.656Z,13.18
2023-04-26T15:00:53.459Z,18.10
2023-04-26T15:03:57.625Z,12.63
2023-04-26T15:07:01.047Z,9.25
2023-04-26T15:10:02.908Z,14.20
2023-04-26T15:13:04.536Z,15.15
2023-04-26T15:16:08.038Z,14.73
2023-04-26T15:19:09.927Z,11.27
2023-04-26T15:22:11.942Z,11.50
2023-04-26T15:25:13.758Z,10.18
2023-04-26T15:28:16.589Z,12.80
2023-04-26T15:31:20.927Z,12.07
2023-04-26T15:34:25.522Z,13.55
2023-04-26T15:37:27.160Z,6.78
2023-04-26T15:40:28.740Z,15.02
2023-04-26T15:43:30.318Z,21.20
2023-04-26T15:46:32.015Z,12.63
2023-04-26T15:49:33.727Z,13.00
2023-04-26T15:52:39.670Z,10.70
2023-04-26T15:55:41.593Z,12.02
2023-04-26T15:58:47.289Z,9.10
2023-04-26T16:01:48.917Z,20.17
2023-04-26T16:04:50.733Z,10.77
2023-04-26T16:07:52.374Z,14.35
2023-04-26T16:10:58.369Z,12.63
2023-04-26T16:14:01.319Z,8.88
2023-04-26T16:17:04.870Z,9.80
2023-04-26T16:20:08.025Z,10.10
2023-04-26T16:23:10.072Z,8.57
2023-04-26T16:26:11.873Z,13.77
2023-04-26T16:29:14.155Z,12.32
2023-04-26T16:32:16.031Z,11.73
2023-04-26T16:35:17.791Z,8.98
2023-04-26T16:38:20.026Z,12.13
2023-04-26T16:41:23.147Z,10.70
2023-04-26T16:44:25.146Z,12.10
2023-04-26T16:47:26.700Z,13.20
2023-04-26T16:50:28.501Z,16.50
2023-04-26T16:53:30.897Z,8.45
2023-04-26T16:56:32.862Z,10.77
2023-04-26T16:59:34.438Z,10.23
2023-04-26T17:02:36.203Z,9.77
2023-04-26T17:05:43.489Z,9.77
2023-04-26T17:08:45.498Z,9.75
2023-04-26T17:11:47.121Z,10.98
2023-04-26T17:14:48.977Z,14.35
2023-04-26T17:17:50.760Z,12.50
2023-04-26T17:20:53.702Z,15.45
2023-04-26T17:23:55.256Z,12.90
2023-04-26T17:26:56.825Z,12.63
2023-04-26T17:29:58.457Z,12.73
2023-04-26T17:33:00.064Z,14.32
2023-04-26T17:36:02.615Z,12.07
2023-04-26T17:39:04.308Z,10.80
2023-04-26T17:42:05.878Z,8.93
2023-04-26T17:45:07.711Z,13.18
2023-04-26T17:48:12.810Z,12.45
2023-04-26T17:51:14.402Z,11.70
2023-04-26T17:54:16.894Z,9.77
2023-04-26T17:57:20.139Z,8.93
2023-04-26T18:00:21.889Z,14.02
2023-04-26T18:03:23.673Z,7.85
2023-04-26T18:06:26.584Z,10.68
2023-04-26T18:09:28.136Z,9.13
2023-04-26T18:12:30.694Z,11.32
2023-04-26T18:15:32.331Z,10.23
2023-04-26T18:18:33.947Z,12.15
2023-04-26T18:21:35.703Z,9.02
2023-04-26T18:24:37.553Z,12.45
2023-04-26T18:27:39.162Z,10.02
2023-04-26T18:30:40.827Z,12.27
2023-04-26T18:33:42.547Z,12.07
2023-04-26T18:36:44.104Z,8.45
2023-04-26T18:39:45.839Z,13.15
2023-04-26T18:42:47.410Z,11.45
2023-04-26T18:45:49.513Z,16.00
2023-04-26T18:48:51.150Z,10.90
2023-04-26T18:51:52.930Z,13.77
2023-04-26T18:54:54.479Z,11.50
2023-04-26T18:57:56.121Z,13.13
2023-04-26T19:00:57.876Z,13.48
2023-04-26T19:04:00.067Z,13.50
2023-04-26T19:07:01.938Z,10.88
2023-04-26T19:10:04.405Z,18.63
2023-04-26T19:13:06.215Z,14.10
2023-04-26T19:16:08.979Z,15.10
2023-04-26T19:19:11.175Z,12.77
2023-04-26T19:22:12.862Z,17.15
2023-04-26T19:25:14.794Z,13.38
2023-04-26T19:28:16.381Z,16.00
2023-04-26T19:31:17.988Z,16.13
2023-04-26T19:34:19.588Z,15.07
2023-04-26T19:37:21.537Z,15.18
2023-04-26T19:40:23.073Z,17.35
2023-04-26T19:43:24.691Z,13.80
2023-04-26T19:46:26.222Z,21.38
2023-04-26T19:49:29.167Z,17.42
2023-04-26T19:52:30.874Z,19.27
2023-04-26T19:55:32.820Z,13.75
2023-04-26T19:58:34.370Z,13.05
2023-04-26T20:01:36.379Z,19.13
2023-04-26T20:04:37.988Z,13.77
2023-04-26T20:07:39.504Z,16.67
2023-04-26T20:10:41.660Z,11.15
2023-04-26T20:13:43.962Z,16.33
2023-04-26T20:16:45.545Z,16.38
2023-04-26T20:19:47.768Z,14.82
2023-04-26T20:22:49.672Z,18.40
2023-04-26T20:25:51.521Z,17.45
2023-04-26T20:28:53.058Z,13.10
2023-04-26T20:31:55.023Z,16.02
2023-04-26T20:34:56.658Z,14.95
2023-04-26T20:37:58.200Z,12.50
2023-04-26T20:41:00.459Z,15.98
2023-04-26T20:44:02.292Z,11.80
2023-04-26T20:47:04.027Z,15.85
2023-04-26T20:50:06.157Z,10.48
2023-04-26T20:53:07.749Z,21.02
2023-04-26T20:56:09.547Z,13.82
2023-04-26T20:59:11.635Z,20.40
2023-04-26T21:02:13.515Z,13.65
2023-04-26T21:05:15.232Z,13.63
2023-04-26T21:08:16.831Z,19.08
2023-04-26T21:11:18.399Z,16.70
2023-04-26T21:14:19.923Z,14.93
2023-04-26T21:17:21.524Z,17.52
2023-04-26T21:20:23.056Z,17.58
2023-04-26T21:23:24.675Z,14.90
2023-04-26T21:26:26.330Z,15.20
2023-04-26T21:29:31.186Z,20.23
2023-04-26T21:32:32.793Z,16.60
2023-04-26T21:35:34.860Z,15.80
2023-04-26T21:38:36.402Z,15.48
2023-04-26T21:41:37.960Z,13.40
2023-04-26T21:44:39.509Z,15.73
2023-04-26T21:47:41.224Z,13.68
2023-04-26T21:50:42.803Z,17.15
2023-04-26T21:53:44.343Z,12.38
2023-04-26T21:56:46.117Z,13.68
2023-04-26T21:59:47.782Z,17.75
2023-04-26T22:02:51.356Z,19.55
2023-04-26T22:05:53.050Z,17.42
2023-04-26T22:08:54.596Z,18.50
2023-04-26T22:11:56.192Z,15.85
2023-04-26T22:14:57.864Z,16.75
2023-04-26T22:17:59.495Z,20.70
2023-04-26T22:21:01.405Z,13.65
2023-04-26T22:24:03.074Z,20.55
2023-04-26T22:27:04.724Z,16.95
2023-04-26T22:30:23.097Z,15.68
2023-04-26T22:33:26.111Z,16.50
2023-04-26T22:36:27.708Z,13.50
2023-04-26T22:39:29.208Z,15.00
2023-04-26T22:42:31.070Z,14.30
2023-04-26T22:45:33.480Z,14.40
2023-04-26T22:48:35.052Z,18.17
2023-04-26T22:51:36.753Z,15.77
2023-04-26T22:54:38.428Z,13.63
2023-04-26T22:57:40.283Z,15.18
2023-04-26T23:00:41.850Z,20.52
2023-04-26T23:03:43.444Z,12.52
2023-04-26T23:06:45.054Z,13.73
2023-04-26T23:09:47.350Z,15.73
2023-04-26T23:12:50.023Z,15.38
2023-04-26T23:15:52.310Z,12.35
2023-04-26T23:18:54.015Z,17.65
2023-04-26T23:21:55.610Z,18.77
2023-04-26T23:24:57.289Z,14.07
2023-04-26T23:27:58.904Z,14.52
2023-04-26T23:31:00.651Z,16.67
2023-04-26T23:34:02.305Z,14.30
2023-04-26T23:37:07.224Z,14.23
2023-04-26T23:40:10.145Z,19.10
2023-04-26T23:43:13.745Z,15.43
2023-04-26T23:46:15.573Z,13.50
2023-04-26T23:49:17.198Z,15.30
2023-04-26T23:52:18.831Z,11.07
2023-04-26T23:55:20.391Z,14.23
2023-04-26T23:58:22.293Z,10.52
